Adah, Pennsylvania
Current Conditions -  °F | °C
As of 2:53 AM on Wednesday 26 Nov 2014 (Local Time) from KMGW Reporting Station
Few Clouds Few Clouds  
Wind Chill: 31°   Ceiling: Unl
Heat Index: 35°   Visibility: 10mi
Dew Point: 25°   Wind: 5mph
Humidity: 67%   Direction: 340°NNW
Pressure: 30.14"   Gusts: NA
Location:  39.9°N, 79.92°W
Report Text: KMGW 260753Z AUTO 34004KT 10SM FEW120 02/M04 A3014 RMK AO2 SLP213 T00171039 TSNO
Loading
Personal Weather Stations






























Interactive Weather Map New forecast layout! Learn more

10-Day Weather Forecast

Advertisements
Track Severe Weather on mobile